sensor_id;sensor_type;location;lat;lon;timestamp;temperature;humidity
2212;DHT22;48849;48.758;9.158;2023-03-13T00:00:53;9.50;99.90
2212;DHT22;48849;48.758;9.158;2023-03-13T00:03:21;9.50;99.90
2212;DHT22;48849;48.758;9.158;2023-03-13T00:05:47;9.40;99.90
2212;DHT22;48849;48.758;9.158;2023-03-13T00:08:14;9.40;99.90
2212;DHT22;48849;48.758;9.158;2023-03-13T00:10:42;9.40;99.90
2212;DHT22;48849;48.758;9.158;2023-03-13T00:13:09;9.40;99.90
2212;DHT22;48849;48.758;9.158;2023-03-13T00:18:03;9.40;99.90
2212;DHT22;48849;48.758;9.158;2023-03-13T00:20:30;9.40;99.90
2212;DHT22;48849;48.758;9.158;2023-03-13T00:25:23;9.50;99.90
2212;DHT22;48849;48.758;9.158;2023-03-13T00:27:51;9.40;99.90
2212;DHT22;48849;48.758;9.158;2023-03-13T00:30:18;9.40;99.90
2212;DHT22;48849;48.758;9.158;2023-03-13T00:32:45;9.50;99.90
2212;DHT22;48849;48.758;9.158;2023-03-13T00:35:13;9.40;99.90
2212;DHT22;48849;48.758;9.158;2023-03-13T00:37:40;9.40;99.90
2212;DHT22;48849;48.758;9.158;2023-03-13T00:40:08;9.50;99.90
2212;DHT22;48849;48.758;9.158;2023-03-13T00:42:35;9.40;99.90
2212;DHT22;48849;48.758;9.158;2023-03-13T00:45:04;9.40;99.90
2212;DHT22;48849;48.758;9.158;2023-03-13T00:47:30;9.50;99.90
2212;DHT22;48849;48.758;9.158;2023-03-13T00:49:57;9.50;99.90
2212;DHT22;48849;48.758;9.158;2023-03-13T00:52:24;9.50;99.90
2212;DHT22;48849;48.758;9.158;2023-03-13T00:57:19;9.50;99.90
2212;DHT22;48849;48.758;9.158;2023-03-13T00:59:46;9.50;99.90
2212;DHT22;48849;48.758;9.158;2023-03-13T01:02:14;9.50;99.90
2212;DHT22;48849;48.758;9.158;2023-03-13T01:04:41;9.50;99.90
2212;DHT22;48849;48.758;9.158;2023-03-13T01:07:07;9.50;99.90
2212;DHT22;48849;48.758;9.158;2023-03-13T01:16:55;9.50;99.90
2212;DHT22;48849;48.758;9.158;2023-03-13T01:19:23;9.40;99.90
2212;DHT22;48849;48.758;9.158;2023-03-13T01:24:17;9.50;99.90
2212;DHT22;48849;48.758;9.158;2023-03-13T01:26:44;9.50;99.90
2212;DHT22;48849;48.758;9.158;2023-03-13T01:29:11;9.50;99.90
2212;DHT22;48849;48.758;9.158;2023-03-13T01:31:38;9.60;99.90
2212;DHT22;48849;48.758;9.158;2023-03-13T01:34:05;9.60;99.90
2212;DHT22;48849;48.758;9.158;2023-03-13T01:36:35;9.60;99.90
2212;DHT22;48849;48.758;9.158;2023-03-13T01:39:02;9.60;99.90
2212;DHT22;48849;48.758;9.158;2023-03-13T01:41:30;9.70;99.90
2212;DHT22;48849;48.758;9.158;2023-03-13T01:43:57;9.70;99.90
2212;DHT22;48849;48.758;9.158;2023-03-13T01:46:25;9.70;99.90
2212;DHT22;48849;48.758;9.158;2023-03-13T01:48:54;9.70;99.90
2212;DHT22;48849;48.758;9.158;2023-03-13T01:51:26;9.70;99.90
2212;DHT22;48849;48.758;9.158;2023-03-13T01:53:59;5.40;99.90
2212;DHT22;48849;48.758;9.158;2023-03-13T01:56:31;9.80;99.90
2212;DHT22;48849;48.758;9.158;2023-03-13T02:01:27;9.80;99.90
2212;DHT22;48849;48.758;9.158;2023-03-13T02:03:55;9.80;99.90
2212;DHT22;48849;48.758;9.158;2023-03-13T02:06:23;9.80;99.90
2212;DHT22;48849;48.758;9.158;2023-03-13T02:08:55;9.80;99.90
2212;DHT22;48849;48.758;9.158;2023-03-13T02:11:28;9.90;99.90
2212;DHT22;48849;48.758;9.158;2023-03-13T02:13:57;9.90;99.90
2212;DHT22;48849;48.758;9.158;2023-03-13T02:16:25;9.90;99.90
2212;DHT22;48849;48.758;9.158;2023-03-13T02:18:52;10.00;99.90
2212;DHT22;48849;48.758;9.158;2023-03-13T02:21:29;10.00;99.90
2212;DHT22;48849;48.758;9.158;2023-03-13T02:24:02;10.00;99.90
2212;DHT22;48849;48.758;9.158;2023-03-13T02:26:33;10.00;99.90
2212;DHT22;48849;48.758;9.158;2023-03-13T02:29:00;10.00;99.90
2212;DHT22;48849;48.758;9.158;2023-03-13T02:31:27;10.00;99.90
2212;DHT22;48849;48.758;9.158;2023-03-13T02:33:56;10.00;99.90
2212;DHT22;48849;48.758;9.158;2023-03-13T02:36:26;10.10;99.90
2212;DHT22;48849;48.758;9.158;2023-03-13T02:38:56;10.10;99.90
2212;DHT22;48849;48.758;9.158;2023-03-13T02:41:24;10.10;99.90
2212;DHT22;48849;48.758;9.158;2023-03-13T02:43:53;10.10;99.90
2212;DHT22;48849;48.758;9.158;2023-03-13T02:46:20;10.10;99.90
2212;DHT22;48849;48.758;9.158;2023-03-13T02:48:49;10.10;99.90
2212;DHT22;48849;48.758;9.158;2023-03-13T02:51:21;10.10;99.90
2212;DHT22;48849;48.758;9.158;2023-03-13T02:53:50;10.10;99.90
2212;DHT22;48849;48.758;9.158;2023-03-13T02:56:20;10.20;99.90
2212;DHT22;48849;48.758;9.158;2023-03-13T02:58:47;10.10;99.90
2212;DHT22;48849;48.758;9.158;2023-03-13T03:01:15;10.20;99.90
2212;DHT22;48849;48.758;9.158;2023-03-13T03:03:42;10.20;99.90
2212;DHT22;48849;48.758;9.158;2023-03-13T03:06:08;10.20;99.90
2212;DHT22;48849;48.758;9.158;2023-03-13T03:08:35;10.20;99.90
2212;DHT22;48849;48.758;9.158;2023-03-13T03:11:06;10.20;99.90
2212;DHT22;48849;48.758;9.158;2023-03-13T03:13:33;10.20;99.90
2212;DHT22;48849;48.758;9.158;2023-03-13T03:16:04;10.20;99.90
2212;DHT22;48849;48.758;9.158;2023-03-13T03:18:33;10.20;99.90
2212;DHT22;48849;48.758;9.158;2023-03-13T03:20:59;10.20;99.90
2212;DHT22;48849;48.758;9.158;2023-03-13T03:23:26;10.20;99.90
2212;DHT22;48849;48.758;9.158;2023-03-13T03:25:53;10.20;99.90
2212;DHT22;48849;48.758;9.158;2023-03-13T03:28:19;10.20;99.90
2212;DHT22;48849;48.758;9.158;2023-03-13T03:30:46;10.20;99.90
2212;DHT22;48849;48.758;9.158;2023-03-13T03:33:13;10.10;99.90
2212;DHT22;48849;48.758;9.158;2023-03-13T03:35:41;10.10;99.90
2212;DHT22;48849;48.758;9.158;2023-03-13T03:38:08;10.20;99.90
2212;DHT22;48849;48.758;9.158;2023-03-13T03:40:34;11.00;99.90
2212;DHT22;48849;48.758;9.158;2023-03-13T03:43:01;10.10;99.90
2212;DHT22;48849;48.758;9.158;2023-03-13T03:45:28;10.20;99.90
2212;DHT22;48849;48.758;9.158;2023-03-13T03:47:54;10.10;99.90
2212;DHT22;48849;48.758;9.158;2023-03-13T03:50:24;10.20;99.90
2212;DHT22;48849;48.758;9.158;2023-03-13T03:52:52;10.20;99.90
2212;DHT22;48849;48.758;9.158;2023-03-13T03:55:19;10.20;99.90
2212;DHT22;48849;48.758;9.158;2023-03-13T03:57:45;10.10;99.90
2212;DHT22;48849;48.758;9.158;2023-03-13T04:00:12;10.10;99.90
2212;DHT22;48849;48.758;9.158;2023-03-13T04:02:40;10.20;99.90
2212;DHT22;48849;48.758;9.158;2023-03-13T04:05:07;10.20;99.90
2212;DHT22;48849;48.758;9.158;2023-03-13T04:07:34;10.20;99.90
2212;DHT22;48849;48.758;9.158;2023-03-13T04:10:02;10.20;99.90
2212;DHT22;48849;48.758;9.158;2023-03-13T04:12:29;10.20;99.90
2212;DHT22;48849;48.758;9.158;2023-03-13T04:14:56;10.10;99.90
2212;DHT22;48849;48.758;9.158;2023-03-13T04:17:22;10.20;99.90
2212;DHT22;48849;48.758;9.158;2023-03-13T04:19:49;10.20;99.90
2212;DHT22;48849;48.758;9.158;2023-03-13T04:22:16;10.30;99.90
2212;DHT22;48849;48.758;9.158;2023-03-13T04:24:42;10.40;99.90
2212;DHT22;48849;48.758;9.158;2023-03-13T04:27:10;10.50;99.90
2212;DHT22;48849;48.758;9.158;2023-03-13T04:29:38;10.50;99.90
2212;DHT22;48849;48.758;9.158;2023-03-13T04:32:05;10.60;99.90
2212;DHT22;48849;48.758;9.158;2023-03-13T04:34:32;10.60;99.90
2212;DHT22;48849;48.758;9.158;2023-03-13T04:36:58;10.70;99.90
2212;DHT22;48849;48.758;9.158;2023-03-13T04:39:25;10.80;99.90
2212;DHT22;48849;48.758;9.158;2023-03-13T04:41:52;10.90;99.90
2212;DHT22;48849;48.758;9.158;2023-03-13T04:44:21;11.00;99.90
2212;DHT22;48849;48.758;9.158;2023-03-13T04:46:48;11.10;99.90
2212;DHT22;48849;48.758;9.158;2023-03-13T04:49:15;11.10;99.90
2212;DHT22;48849;48.758;9.158;2023-03-13T04:51:43;11.20;99.90
2212;DHT22;48849;48.758;9.158;2023-03-13T04:54:10;11.30;99.90
2212;DHT22;48849;48.758;9.158;2023-03-13T04:56:37;11.40;99.90
2212;DHT22;48849;48.758;9.158;2023-03-13T04:59:04;11.40;99.90
2212;DHT22;48849;48.758;9.158;2023-03-13T05:01:32;11.40;99.90
2212;DHT22;48849;48.758;9.158;2023-03-13T05:03:58;11.50;99.90
2212;DHT22;48849;48.758;9.158;2023-03-13T05:06:25;11.50;99.90
2212;DHT22;48849;48.758;9.158;2023-03-13T05:08:52;11.50;99.90
2212;DHT22;48849;48.758;9.158;2023-03-13T05:11:18;11.60;99.90
2212;DHT22;48849;48.758;9.158;2023-03-13T05:13:45;11.60;99.90
2212;DHT22;48849;48.758;9.158;2023-03-13T05:16:12;11.60;99.90
2212;DHT22;48849;48.758;9.158;2023-03-13T05:18:40;11.60;99.90
2212;DHT22;48849;48.758;9.158;2023-03-13T05:21:07;11.60;99.90
2212;DHT22;48849;48.758;9.158;2023-03-13T05:23:33;11.60;99.90
2212;DHT22;48849;48.758;9.158;2023-03-13T05:26:00;11.60;99.90
2212;DHT22;48849;48.758;9.158;2023-03-13T05:28:27;11.60;99.90
2212;DHT22;48849;48.758;9.158;2023-03-13T05:30:54;11.60;99.90
2212;DHT22;48849;48.758;9.158;2023-03-13T05:33:20;11.60;99.90
2212;DHT22;48849;48.758;9.158;2023-03-13T05:35:48;11.60;99.90
2212;DHT22;48849;48.758;9.158;2023-03-13T05:38:15;12.10;99.90
2212;DHT22;48849;48.758;9.158;2023-03-13T05:40:42;11.60;99.90
2212;DHT22;48849;48.758;9.158;2023-03-13T05:43:09;11.70;99.90
2212;DHT22;48849;48.758;9.158;2023-03-13T05:45:36;11.70;99.90
2212;DHT22;48849;48.758;9.158;2023-03-13T05:48:03;11.70;99.90
2212;DHT22;48849;48.758;9.158;2023-03-13T05:50:29;11.70;99.90
2212;DHT22;48849;48.758;9.158;2023-03-13T05:52:57;11.70;99.90
2212;DHT22;48849;48.758;9.158;2023-03-13T05:55:24;11.80;99.90
2212;DHT22;48849;48.758;9.158;2023-03-13T05:57:51;11.80;99.90
2212;DHT22;48849;48.758;9.158;2023-03-13T06:00:18;11.80;99.90
2212;DHT22;48849;48.758;9.158;2023-03-13T06:02:45;11.80;99.90
2212;DHT22;48849;48.758;9.158;2023-03-13T06:05:11;11.80;99.90
2212;DHT22;48849;48.758;9.158;2023-03-13T06:07:38;11.90;99.90
2212;DHT22;48849;48.758;9.158;2023-03-13T06:10:07;11.90;99.90
2212;DHT22;48849;48.758;9.158;2023-03-13T06:12:34;11.90;99.90
2212;DHT22;48849;48.758;9.158;2023-03-13T06:15:01;11.90;99.90
2212;DHT22;48849;48.758;9.158;2023-03-13T06:17:27;11.90;99.90
2212;DHT22;48849;48.758;9.158;2023-03-13T06:19:54;11.90;99.90
2212;DHT22;48849;48.758;9.158;2023-03-13T06:22:21;12.00;99.90
2212;DHT22;48849;48.758;9.158;2023-03-13T06:24:47;11.90;99.90
2212;DHT22;48849;48.758;9.158;2023-03-13T06:27:15;12.00;99.90
2212;DHT22;48849;48.758;9.158;2023-03-13T06:29:42;12.00;99.90
2212;DHT22;48849;48.758;9.158;2023-03-13T06:32:09;12.00;99.90
2212;DHT22;48849;48.758;9.158;2023-03-13T06:34:36;12.00;99.90
2212;DHT22;48849;48.758;9.158;2023-03-13T06:37:02;12.00;99.90
2212;DHT22;48849;48.758;9.158;2023-03-13T06:39:29;12.00;99.90
2212;DHT22;48849;48.758;9.158;2023-03-13T06:41:56;12.10;99.90
2212;DHT22;48849;48.758;9.158;2023-03-13T06:44:24;12.10;99.90
2212;DHT22;48849;48.758;9.158;2023-03-13T06:46:51;12.10;99.90
2212;DHT22;48849;48.758;9.158;2023-03-13T06:49:18;12.10;99.90
2212;DHT22;48849;48.758;9.158;2023-03-13T06:51:44;12.20;99.90
2212;DHT22;48849;48.758;9.158;2023-03-13T06:54:11;12.20;99.90
2212;DHT22;48849;48.758;9.158;2023-03-13T06:56:38;12.30;99.90
2212;DHT22;48849;48.758;9.158;2023-03-13T06:59:05;12.30;99.90
2212;DHT22;48849;48.758;9.158;2023-03-13T07:01:32;12.30;99.90
2212;DHT22;48849;48.758;9.158;2023-03-13T07:03:59;12.30;99.90
2212;DHT22;48849;48.758;9.158;2023-03-13T07:06:26;12.40;99.90
2212;DHT22;48849;48.758;9.158;2023-03-13T07:08:53;12.40;99.90
2212;DHT22;48849;48.758;9.158;2023-03-13T07:11:19;12.40;99.90
2212;DHT22;48849;48.758;9.158;2023-03-13T07:13:46;12.40;99.90
2212;DHT22;48849;48.758;9.158;2023-03-13T07:16:13;12.50;99.90
2212;DHT22;48849;48.758;9.158;2023-03-13T07:18:41;12.50;99.90
2212;DHT22;48849;48.758;9.158;2023-03-13T07:21:09;12.50;99.90
2212;DHT22;48849;48.758;9.158;2023-03-13T07:23:36;12.50;99.90
2212;DHT22;48849;48.758;9.158;2023-03-13T07:26:04;12.60;99.90
2212;DHT22;48849;48.758;9.158;2023-03-13T07:28:31;12.50;99.90
2212;DHT22;48849;48.758;9.158;2023-03-13T07:31:06;12.60;99.90
2212;DHT22;48849;48.758;9.158;2023-03-13T07:33:32;12.60;99.90
2212;DHT22;48849;48.758;9.158;2023-03-13T07:36:01;12.60;99.90
2212;DHT22;48849;48.758;9.158;2023-03-13T07:38:28;12.60;99.90
2212;DHT22;48849;48.758;9.158;2023-03-13T07:40:55;12.50;99.90
2212;DHT22;48849;48.758;9.158;2023-03-13T07:43:23;12.60;99.90
2212;DHT22;48849;48.758;9.158;2023-03-13T07:45:52;12.70;99.90
2212;DHT22;48849;48.758;9.158;2023-03-13T07:48:19;12.70;99.90
2212;DHT22;48849;48.758;9.158;2023-03-13T07:50:47;12.70;99.90
2212;DHT22;48849;48.758;9.158;2023-03-13T07:53:15;12.70;99.90
2212;DHT22;48849;48.758;9.158;2023-03-13T07:55:54;12.70;99.90
2212;DHT22;48849;48.758;9.158;2023-03-13T07:58:22;12.70;99.90
2212;DHT22;48849;48.758;9.158;2023-03-13T08:00:49;12.70;99.90
2212;DHT22;48849;48.758;9.158;2023-03-13T08:03:16;12.70;99.90
2212;DHT22;48849;48.758;9.158;2023-03-13T08:05:43;12.70;99.90
2212;DHT22;48849;48.758;9.158;2023-03-13T08:08:10;12.70;99.90
2212;DHT22;48849;48.758;9.158;2023-03-13T08:10:38;12.70;99.90
2212;DHT22;48849;48.758;9.158;2023-03-13T08:13:04;12.70;99.90
2212;DHT22;48849;48.758;9.158;2023-03-13T08:15:31;12.80;99.90
2212;DHT22;48849;48.758;9.158;2023-03-13T08:17:58;12.80;99.90
2212;DHT22;48849;48.758;9.158;2023-03-13T08:20:24;12.80;99.90
2212;DHT22;48849;48.758;9.158;2023-03-13T08:22:51;12.90;99.90
2212;DHT22;48849;48.758;9.158;2023-03-13T08:25:20;12.90;99.90
2212;DHT22;48849;48.758;9.158;2023-03-13T08:27:48;13.00;99.90
2212;DHT22;48849;48.758;9.158;2023-03-13T08:30:15;13.00;99.90
2212;DHT22;48849;48.758;9.158;2023-03-13T08:32:41;13.10;99.90
2212;DHT22;48849;48.758;9.158;2023-03-13T08:35:08;13.10;99.90
2212;DHT22;48849;48.758;9.158;2023-03-13T08:37:35;13.10;99.90
2212;DHT22;48849;48.758;9.158;2023-03-13T08:40:02;13.10;99.90
2212;DHT22;48849;48.758;9.158;2023-03-13T08:42:35;13.20;99.90
2212;DHT22;48849;48.758;9.158;2023-03-13T08:45:04;13.20;99.90
2212;DHT22;48849;48.758;9.158;2023-03-13T08:47:31;13.20;99.90
2212;DHT22;48849;48.758;9.158;2023-03-13T08:49:58;13.20;99.90
2212;DHT22;48849;48.758;9.158;2023-03-13T08:52:24;13.30;99.90
2212;DHT22;48849;48.758;9.158;2023-03-13T08:54:52;13.30;99.90
2212;DHT22;48849;48.758;9.158;2023-03-13T08:57:18;13.20;99.90
2212;DHT22;48849;48.758;9.158;2023-03-13T08:59:45;13.30;99.90
2212;DHT22;48849;48.758;9.158;2023-03-13T09:02:13;13.30;99.90
2212;DHT22;48849;48.758;9.158;2023-03-13T09:04:44;13.40;99.90
2212;DHT22;48849;48.758;9.158;2023-03-13T09:07:11;13.40;99.90
2212;DHT22;48849;48.758;9.158;2023-03-13T09:09:38;13.40;99.90
2212;DHT22;48849;48.758;9.158;2023-03-13T09:12:05;13.40;99.90
2212;DHT22;48849;48.758;9.158;2023-03-13T09:14:32;13.50;99.90
2212;DHT22;48849;48.758;9.158;2023-03-13T09:16:59;13.50;99.90
2212;DHT22;48849;48.758;9.158;2023-03-13T09:19:27;13.50;99.90
2212;DHT22;48849;48.758;9.158;2023-03-13T09:21:53;13.60;99.90
2212;DHT22;48849;48.758;9.158;2023-03-13T09:24:20;13.70;99.90
2212;DHT22;48849;48.758;9.158;2023-03-13T09:26:47;13.60;99.90
2212;DHT22;48849;48.758;9.158;2023-03-13T09:29:13;13.70;99.90
2212;DHT22;48849;48.758;9.158;2023-03-13T09:31:40;13.80;99.90
2212;DHT22;48849;48.758;9.158;2023-03-13T09:34:07;13.80;99.90
2212;DHT22;48849;48.758;9.158;2023-03-13T09:36:35;13.80;99.90
2212;DHT22;48849;48.758;9.158;2023-03-13T09:39:02;13.90;99.90
2212;DHT22;48849;48.758;9.158;2023-03-13T09:41:33;13.90;99.90
2212;DHT22;48849;48.758;9.158;2023-03-13T09:44:07;13.90;99.90
2212;DHT22;48849;48.758;9.158;2023-03-13T09:46:38;14.00;99.90
2212;DHT22;48849;48.758;9.158;2023-03-13T09:49:13;14.00;99.90
2212;DHT22;48849;48.758;9.158;2023-03-13T09:51:44;14.00;99.90
2212;DHT22;48849;48.758;9.158;2023-03-13T09:54:21;14.00;99.90
2212;DHT22;48849;48.758;9.158;2023-03-13T09:56:52;14.00;99.90
2212;DHT22;48849;48.758;9.158;2023-03-13T09:59:26;14.10;99.90
2212;DHT22;48849;48.758;9.158;2023-03-13T10:01:57;14.10;99.90
2212;DHT22;48849;48.758;9.158;2023-03-13T10:04:29;14.20;99.90
2212;DHT22;48849;48.758;9.158;2023-03-13T10:06:58;14.20;99.90
2212;DHT22;48849;48.758;9.158;2023-03-13T10:09:28;14.30;99.90
2212;DHT22;48849;48.758;9.158;2023-03-13T10:12:02;14.30;99.90
2212;DHT22;48849;48.758;9.158;2023-03-13T10:14:38;14.40;99.90
2212;DHT22;48849;48.758;9.158;2023-03-13T10:17:14;14.50;99.90
2212;DHT22;48849;48.758;9.158;2023-03-13T10:19:43;14.60;99.90
2212;DHT22;48849;48.758;9.158;2023-03-13T10:22:17;14.50;99.90
2212;DHT22;48849;48.758;9.158;2023-03-13T10:24:48;14.60;99.90
2212;DHT22;48849;48.758;9.158;2023-03-13T10:27:15;14.70;99.90
2212;DHT22;48849;48.758;9.158;2023-03-13T10:29:42;14.70;99.90
2212;DHT22;48849;48.758;9.158;2023-03-13T10:32:12;14.80;99.90
2212;DHT22;48849;48.758;9.158;2023-03-13T10:34:50;14.80;99.90
2212;DHT22;48849;48.758;9.158;2023-03-13T10:37:22;14.90;99.90
2212;DHT22;48849;48.758;9.158;2023-03-13T10:39:50;15.00;99.90
2212;DHT22;48849;48.758;9.158;2023-03-13T10:42:20;15.30;99.90
2212;DHT22;48849;48.758;9.158;2023-03-13T10:44:48;15.00;99.90
2212;DHT22;48849;48.758;9.158;2023-03-13T10:47:20;15.00;99.90
2212;DHT22;48849;48.758;9.158;2023-03-13T10:49:49;15.00;99.90
2212;DHT22;48849;48.758;9.158;2023-03-13T10:52:30;15.00;99.90
2212;DHT22;48849;48.758;9.158;2023-03-13T10:54:59;15.00;99.90
2212;DHT22;48849;48.758;9.158;2023-03-13T10:57:29;15.10;99.90
2212;DHT22;48849;48.758;9.158;2023-03-13T10:59:57;15.10;99.90
2212;DHT22;48849;48.758;9.158;2023-03-13T11:02:27;15.20;99.90
2212;DHT22;48849;48.758;9.158;2023-03-13T11:04:54;15.20;99.90
2212;DHT22;48849;48.758;9.158;2023-03-13T11:07:26;15.20;99.90
2212;DHT22;48849;48.758;9.158;2023-03-13T11:10:00;15.30;99.90
2212;DHT22;48849;48.758;9.158;2023-03-13T11:12:28;15.30;99.90
2212;DHT22;48849;48.758;9.158;2023-03-13T11:14:59;15.30;99.90
2212;DHT22;48849;48.758;9.158;2023-03-13T11:17:31;15.30;99.90
2212;DHT22;48849;48.758;9.158;2023-03-13T11:20:14;16.00;99.90
2212;DHT22;48849;48.758;9.158;2023-03-13T11:23:04;15.40;99.90
2212;DHT22;48849;48.758;9.158;2023-03-13T11:25:38;15.40;99.90
2212;DHT22;48849;48.758;9.158;2023-03-13T11:28:24;15.50;99.90
2212;DHT22;48849;48.758;9.158;2023-03-13T11:31:02;15.50;99.90
2212;DHT22;48849;48.758;9.158;2023-03-13T11:33:38;15.50;99.90
2212;DHT22;48849;48.758;9.158;2023-03-13T11:36:14;15.50;99.90
2212;DHT22;48849;48.758;9.158;2023-03-13T11:38:47;15.60;99.90
2212;DHT22;48849;48.758;9.158;2023-03-13T11:41:31;15.80;99.90
2212;DHT22;48849;48.758;9.158;2023-03-13T11:47:09;16.20;99.90
2212;DHT22;48849;48.758;9.158;2023-03-13T11:49:50;16.50;99.90
2212;DHT22;48849;48.758;9.158;2023-03-13T11:52:33;16.70;99.90
2212;DHT22;48849;48.758;9.158;2023-03-13T11:55:27;16.70;99.90
2212;DHT22;48849;48.758;9.158;2023-03-13T11:58:04;16.70;99.90
2212;DHT22;48849;48.758;9.158;2023-03-13T12:00:37;16.80;99.90
2212;DHT22;48849;48.758;9.158;2023-03-13T12:03:10;16.90;99.90
2212;DHT22;48849;48.758;9.158;2023-03-13T12:05:43;17.00;99.90
2212;DHT22;48849;48.758;9.158;2023-03-13T12:08:15;17.20;99.90
2212;DHT22;48849;48.758;9.158;2023-03-13T12:10:46;17.70;99.90
2212;DHT22;48849;48.758;9.158;2023-03-13T12:13:18;18.20;99.90
2212;DHT22;48849;48.758;9.158;2023-03-13T12:15:48;18.70;99.90
2212;DHT22;48849;48.758;9.158;2023-03-13T12:18:21;19.10;99.90
2212;DHT22;48849;48.758;9.158;2023-03-13T12:20:54;19.30;99.90
2212;DHT22;48849;48.758;9.158;2023-03-13T12:23:27;19.30;99.90
2212;DHT22;48849;48.758;9.158;2023-03-13T12:25:57;19.30;99.90
2212;DHT22;48849;48.758;9.158;2023-03-13T12:28:34;20.20;99.90
2212;DHT22;48849;48.758;9.158;2023-03-13T12:33:52;19.10;99.90
2212;DHT22;48849;48.758;9.158;2023-03-13T12:36:25;19.00;99.90
2212;DHT22;48849;48.758;9.158;2023-03-13T12:38:55;18.90;99.90
2212;DHT22;48849;48.758;9.158;2023-03-13T12:41:27;18.80;99.90
2212;DHT22;48849;48.758;9.158;2023-03-13T12:43:56;18.60;99.90
2212;DHT22;48849;48.758;9.158;2023-03-13T12:46:53;18.40;99.90
2212;DHT22;48849;48.758;9.158;2023-03-13T12:49:49;18.40;99.90
2212;DHT22;48849;48.758;9.158;2023-03-13T12:52:46;18.20;99.90
2212;DHT22;48849;48.758;9.158;2023-03-13T12:55:32;18.10;99.90
2212;DHT22;48849;48.758;9.158;2023-03-13T12:58:22;18.00;99.90
2212;DHT22;48849;48.758;9.158;2023-03-13T13:00:53;18.00;99.90
2212;DHT22;48849;48.758;9.158;2023-03-13T13:03:28;18.00;99.90
2212;DHT22;48849;48.758;9.158;2023-03-13T13:06:05;18.00;99.90
2212;DHT22;48849;48.758;9.158;2023-03-13T13:08:36;17.90;99.90
2212;DHT22;48849;48.758;9.158;2023-03-13T13:17:16;17.90;99.90
2212;DHT22;48849;48.758;9.158;2023-03-13T13:19:46;17.80;99.90
2212;DHT22;48849;48.758;9.158;2023-03-13T13:22:47;17.70;99.90
2212;DHT22;48849;48.758;9.158;2023-03-13T13:25:33;17.50;99.90
2212;DHT22;48849;48.758;9.158;2023-03-13T13:28:21;17.50;99.90
2212;DHT22;48849;48.758;9.158;2023-03-13T13:30:48;17.50;99.90
2212;DHT22;48849;48.758;9.158;2023-03-13T13:33:41;17.60;99.90
2212;DHT22;48849;48.758;9.158;2023-03-13T13:36:28;17.70;99.90
2212;DHT22;48849;48.758;9.158;2023-03-13T13:38:57;17.80;99.90
2212;DHT22;48849;48.758;9.158;2023-03-13T13:41:41;17.80;99.90
2212;DHT22;48849;48.758;9.158;2023-03-13T13:44:21;17.70;99.90
2212;DHT22;48849;48.758;9.158;2023-03-13T13:46:48;17.80;99.90
2212;DHT22;48849;48.758;9.158;2023-03-13T13:49:18;17.80;99.90
2212;DHT22;48849;48.758;9.158;2023-03-13T13:52:16;17.80;99.90
2212;DHT22;48849;48.758;9.158;2023-03-13T13:54:55;17.80;99.90
2212;DHT22;48849;48.758;9.158;2023-03-13T13:57:24;17.80;99.90
2212;DHT22;48849;48.758;9.158;2023-03-13T13:59:53;17.80;99.90
2212;DHT22;48849;48.758;9.158;2023-03-13T14:02:22;17.80;99.90
2212;DHT22;48849;48.758;9.158;2023-03-13T14:05:03;17.90;99.90
2212;DHT22;48849;48.758;9.158;2023-03-13T14:07:42;17.80;99.90
2212;DHT22;48849;48.758;9.158;2023-03-13T14:10:20;17.80;99.90
2212;DHT22;48849;48.758;9.158;2023-03-13T14:12:51;17.80;99.90
2212;DHT22;48849;48.758;9.158;2023-03-13T14:15:21;17.80;99.90
2212;DHT22;48849;48.758;9.158;2023-03-13T14:17:50;17.80;99.90
2212;DHT22;48849;48.758;9.158;2023-03-13T14:20:25;17.70;99.90
2212;DHT22;48849;48.758;9.158;2023-03-13T14:22:54;17.60;99.90
2212;DHT22;48849;48.758;9.158;2023-03-13T14:25:21;17.50;99.90
2212;DHT22;48849;48.758;9.158;2023-03-13T14:27:49;17.50;99.90
2212;DHT22;48849;48.758;9.158;2023-03-13T14:30:18;17.40;99.90
2212;DHT22;48849;48.758;9.158;2023-03-13T14:32:45;17.40;99.90
2212;DHT22;48849;48.758;9.158;2023-03-13T14:35:15;17.40;99.90
2212;DHT22;48849;48.758;9.158;2023-03-13T14:37:44;17.50;99.90
2212;DHT22;48849;48.758;9.158;2023-03-13T14:40:25;17.80;99.90
2212;DHT22;48849;48.758;9.158;2023-03-13T14:42:55;17.60;99.90
2212;DHT22;48849;48.758;9.158;2023-03-13T14:45:26;17.70;99.90
2212;DHT22;48849;48.758;9.158;2023-03-13T14:47:53;17.60;99.90
2212;DHT22;48849;48.758;9.158;2023-03-13T14:50:22;17.60;99.90
2212;DHT22;48849;48.758;9.158;2023-03-13T14:52:53;17.70;99.90
2212;DHT22;48849;48.758;9.158;2023-03-13T14:55:32;17.80;99.90
2212;DHT22;48849;48.758;9.158;2023-03-13T14:58:01;17.80;99.90
2212;DHT22;48849;48.758;9.158;2023-03-13T15:00:37;17.70;99.90
2212;DHT22;48849;48.758;9.158;2023-03-13T15:03:28;17.70;99.90
2212;DHT22;48849;48.758;9.158;2023-03-13T15:06:04;17.70;99.90
2212;DHT22;48849;48.758;9.158;2023-03-13T15:08:34;17.60;99.90
2212;DHT22;48849;48.758;9.158;2023-03-13T15:11:01;17.60;99.90
2212;DHT22;48849;48.758;9.158;2023-03-13T15:13:33;17.60;99.90
2212;DHT22;48849;48.758;9.158;2023-03-13T15:16:01;17.60;99.90
2212;DHT22;48849;48.758;9.158;2023-03-13T15:18:29;17.50;99.90
2212;DHT22;48849;48.758;9.158;2023-03-13T15:20:57;17.40;99.90
2212;DHT22;48849;48.758;9.158;2023-03-13T15:23:25;17.30;99.90
2212;DHT22;48849;48.758;9.158;2023-03-13T15:25:53;17.30;99.90
2212;DHT22;48849;48.758;9.158;2023-03-13T15:28:22;17.30;99.90
2212;DHT22;48849;48.758;9.158;2023-03-13T15:30:50;17.30;99.90
2212;DHT22;48849;48.758;9.158;2023-03-13T15:33:19;17.20;99.90
2212;DHT22;48849;48.758;9.158;2023-03-13T15:35:47;17.20;99.90
2212;DHT22;48849;48.758;9.158;2023-03-13T15:38:15;17.30;99.90
2212;DHT22;48849;48.758;9.158;2023-03-13T15:40:42;17.30;99.90
2212;DHT22;48849;48.758;9.158;2023-03-13T15:43:11;17.30;99.90
2212;DHT22;48849;48.758;9.158;2023-03-13T15:45:40;17.40;99.90
2212;DHT22;48849;48.758;9.158;2023-03-13T15:48:14;17.50;99.90
2212;DHT22;48849;48.758;9.158;2023-03-13T15:50:41;17.60;99.90
2212;DHT22;48849;48.758;9.158;2023-03-13T15:53:16;17.70;99.90
2212;DHT22;48849;48.758;9.158;2023-03-13T15:55:44;17.90;99.90
2212;DHT22;48849;48.758;9.158;2023-03-13T15:58:13;18.00;99.90
2212;DHT22;48849;48.758;9.158;2023-03-13T16:00:40;18.10;99.90
2212;DHT22;48849;48.758;9.158;2023-03-13T16:03:11;18.00;99.90
2212;DHT22;48849;48.758;9.158;2023-03-13T16:05:39;20.30;99.90
2212;DHT22;48849;48.758;9.158;2023-03-13T16:08:06;17.90;99.90
2212;DHT22;48849;48.758;9.158;2023-03-13T16:10:33;17.80;99.90
2212;DHT22;48849;48.758;9.158;2023-03-13T16:12:59;17.70;99.90
2212;DHT22;48849;48.758;9.158;2023-03-13T16:15:29;17.50;99.90
2212;DHT22;48849;48.758;9.158;2023-03-13T16:17:55;17.40;99.90
2212;DHT22;48849;48.758;9.158;2023-03-13T16:20:22;17.30;99.90
2212;DHT22;48849;48.758;9.158;2023-03-13T16:22:50;17.20;99.90
2212;DHT22;48849;48.758;9.158;2023-03-13T16:25:17;17.20;99.90
2212;DHT22;48849;48.758;9.158;2023-03-13T16:27:44;17.10;99.90
2212;DHT22;48849;48.758;9.158;2023-03-13T16:30:16;17.00;99.90
2212;DHT22;48849;48.758;9.158;2023-03-13T16:32:45;16.90;99.90
2212;DHT22;48849;48.758;9.158;2023-03-13T16:35:11;16.80;99.90